Time,TemperatureF,DewpointF,PressureIn,WindDirection,WindDirectionDegrees,WindSpeedMPH,WindSpeedGustMPH,Humidity,HourlyPrecipIn,Conditions,Clouds,dailyrainin,SoftwareType,DateUTC
2013-02-19 00:00:00,15.9,1.7,30.10,WNW,283,0.0,0.0,53,0.00,,,0.00,WUHU216DAVISVP2,2013-02-19 05:00:00,
2013-02-19 00:01:00,15.9,2.2,30.11,WNW,283,0.0,0.0,54,0.00,,,0.00,WUHU216DAVISVP2,2013-02-19 05:01:00,
2013-02-19 00:06:00,15.8,2.1,30.10,WNW,283,0.0,0.0,54,0.00,,,0.00,WUHU216DAVISVP2,2013-02-19 05:06:00,
2013-02-19 00:11:00,15.5,0.5,30.11,WNW,283,0.0,0.0,51,0.00,,,0.00,WUHU216DAVISVP2,2013-02-19 05:11:00,
2013-02-19 00:16:00,15.4,0.4,30.11,WNW,283,0.0,0.0,51,0.00,,,0.00,WUHU216DAVISVP2,2013-02-19 05:16:00,
2013-02-19 00:21:00,15.3,2.0,30.11,WNW,283,0.0,0.0,55,0.00,,,0.00,WUHU216DAVISVP2,2013-02-19 05:21:00,
2013-02-19 00:26:00,15.1,2.6,30.10,WNW,283,0.0,1.0,57,0.00,,,0.00,WUHU216DAVISVP2,2013-02-19 05:26:00,
2013-02-19 00:31:00,14.9,1.6,30.10,WNW,283,1.0,1.0,55,0.00,,,0.00,WUHU216DAVISVP2,2013-02-19 05:31:00,
2013-02-19 00:36:00,14.8,1.5,30.11,WNW,282,0.0,1.0,55,0.00,,,0.00,WUHU216DAVISVP2,2013-02-19 05:36:00,
2013-02-19 00:41:00,14.6,3.3,30.11,WNW,283,0.0,1.0,60,0.00,,,0.00,WUHU216DAVISVP2,2013-02-19 05:41:00,
2013-02-19 00:46:00,14.5,4.2,30.11,WNW,283,0.0,1.0,63,0.00,,,0.00,WUHU216DAVISVP2,2013-02-19 05:46:00,
2013-02-19 00:51:00,14.2,4.0,30.11,WNW,283,1.0,1.0,63,0.00,,,0.00,WUHU216DAVISVP2,2013-02-19 05:51:00,
2013-02-19 00:56:00,13.9,3.0,30.11,WNW,283,0.0,1.0,61,0.00,,,0.00,WUHU216DAVISVP2,2013-02-19 05:56:00,
2013-02-19 01:01:00,13.8,3.2,30.11,WNW,283,1.0,1.0,62,0.00,,,0.00,WUHU216DAVISVP2,2013-02-19 06:01:00,
2013-02-19 01:06:00,13.8,2.1,30.12,WNW,283,0.0,1.0,59,0.00,,,0.00,WUHU216DAVISVP2,2013-02-19 06:06:00,
2013-02-19 01:11:00,13.9,2.2,30.12,WNW,283,0.0,1.0,59,0.00,,,0.00,WUHU216DAVISVP2,2013-02-19 06:11:00,
2013-02-19 01:16:00,13.8,2.9,30.13,WNW,283,0.0,1.0,61,0.00,,,0.00,WUHU216DAVISVP2,2013-02-19 06:16:00,
2013-02-19 01:21:00,13.7,2.8,30.13,WNW,283,0.0,1.0,61,0.00,,,0.00,WUHU216DAVISVP2,2013-02-19 06:21:00,
2013-02-19 01:26:00,13.6,2.7,30.13,WNW,283,0.0,1.0,61,0.00,,,0.00,WUHU216DAVISVP2,2013-02-19 06:26:00,
2013-02-19 01:31:00,13.4,2.1,30.13,WNW,283,0.0,1.0,60,0.00,,,0.00,WUHU216DAVISVP2,2013-02-19 06:31:00,
2013-02-19 01:36:00,13.3,2.0,30.13,WNW,283,0.0,1.0,60,0.00,,,0.00,WUHU216DAVISVP2,2013-02-19 06:36:00,
2013-02-19 01:41:00,13.4,2.5,30.13,WNW,282,0.0,1.0,61,0.00,,,0.00,WUHU216DAVISVP2,2013-02-19 06:41:00,
2013-02-19 01:46:00,13.3,2.7,30.13,WNW,283,0.0,0.0,62,0.00,,,0.00,WUHU216DAVISVP2,2013-02-19 06:46:00,
2013-02-19 01:51:00,13.2,2.3,30.13,WNW,283,0.0,0.0,61,0.00,,,0.00,WUHU216DAVISVP2,2013-02-19 06:51:00,
2013-02-19 01:56:00,13.2,3.0,30.13,WNW,283,0.0,0.0,63,0.00,,,0.00,WUHU216DAVISVP2,2013-02-19 06:56:00,
2013-02-19 02:01:00,13.2,3.7,30.13,WNW,283,0.0,0.0,65,0.00,,,0.00,WUHU216DAVISVP2,2013-02-19 07:01:00,
2013-02-19 02:06:00,13.2,3.3,30.13,WNW,283,0.0,0.0,64,0.00,,,0.00,WUHU216DAVISVP2,2013-02-19 07:06:00,
2013-02-19 02:11:00,13.1,3.6,30.14,WNW,282,0.0,0.0,65,0.00,,,0.00,WUHU216DAVISVP2,2013-02-19 07:11:00,
2013-02-19 02:16:00,13.1,3.6,30.14,WNW,282,0.0,0.0,65,0.00,,,0.00,WUHU216DAVISVP2,2013-02-19 07:16:00,
2013-02-19 02:21:00,13.1,3.2,30.14,WNW,283,0.0,1.0,64,0.00,,,0.00,WUHU216DAVISVP2,2013-02-19 07:21:00,
2013-02-19 02:26:00,13.1,3.2,30.14,WNW,283,1.0,1.0,64,0.00,,,0.00,WUHU216DAVISVP2,2013-02-19 07:26:00,
2013-02-19 02:31:00,13.1,3.9,30.14,WNW,283,1.0,1.0,66,0.00,,,0.00,WUHU216DAVISVP2,2013-02-19 07:31:00,
2013-02-19 02:36:00,13.1,4.2,30.14,WNW,283,0.0,1.0,67,0.00,,,0.00,WUHU216DAVISVP2,2013-02-19 07:36:00,
2013-02-19 02:41:00,13.0,3.8,30.14,WNW,283,0.0,1.0,66,0.00,,,0.00,WUHU216DAVISVP2,2013-02-19 07:41:00,
2013-02-19 02:46:00,12.8,3.0,30.14,WNW,283,0.0,1.0,64,0.00,,,0.00,WUHU216DAVISVP2,2013-02-19 07:46:00,
2013-02-19 02:51:00,12.8,3.0,30.13,WNW,283,0.0,0.0,64,0.00,,,0.00,WUHU216DAVISVP2,2013-02-19 07:51:00,
2013-02-19 02:56:00,12.7,2.5,30.13,WNW,282,0.0,0.0,63,0.00,,,0.00,WUHU216DAVISVP2,2013-02-19 07:56:00,
2013-02-19 03:01:00,12.7,3.5,30.14,WNW,283,0.0,0.0,66,0.00,,,0.00,WUHU216DAVISVP2,2013-02-19 08:01:00,
2013-02-19 03:06:00,12.8,3.0,30.14,WNW,282,0.0,0.0,64,0.00,,,0.00,WUHU216DAVISVP2,2013-02-19 08:06:00,
2013-02-19 03:11:00,13.0,3.2,30.14,WNW,283,0.0,1.0,64,0.00,,,0.00,WUHU216DAVISVP2,2013-02-19 08:11:00,
2013-02-19 03:16:00,13.1,3.6,30.14,WNW,283,0.0,1.0,65,0.00,,,0.00,WUHU216DAVISVP2,2013-02-19 08:16:00,
2013-02-19 03:21:00,13.1,4.2,30.14,WNW,283,0.0,1.0,67,0.00,,,0.00,WUHU216DAVISVP2,2013-02-19 08:21:00,
2013-02-19 03:26:00,13.1,4.2,30.14,WNW,283,0.0,1.0,67,0.00,,,0.00,WUHU216DAVISVP2,2013-02-19 08:26:00,
2013-02-19 03:31:00,12.9,4.4,30.14,WNW,283,0.0,0.0,68,0.00,,,0.00,WUHU216DAVISVP2,2013-02-19 08:31:00,
2013-02-19 03:36:00,12.8,3.6,30.13,WNW,283,0.0,0.0,66,0.00,,,0.00,WUHU216DAVISVP2,2013-02-19 08:36:00,
2013-02-19 03:41:00,12.8,3.6,30.13,WNW,283,0.0,0.0,66,0.00,,,0.00,WUHU216DAVISVP2,2013-02-19 08:41:00,
2013-02-19 03:46:00,13.0,5.1,30.13,WNW,282,0.0,0.0,70,0.00,,,0.00,WUHU216DAVISVP2,2013-02-19 08:46:00,
2013-02-19 03:51:00,13.0,5.1,30.13,WNW,283,0.0,0.0,70,0.00,,,0.00,WUHU216DAVISVP2,2013-02-19 08:51:00,
2013-02-19 03:56:00,13.1,4.9,30.13,WNW,283,0.0,0.0,69,0.00,,,0.00,WUHU216DAVISVP2,2013-02-19 08:56:00,
2013-02-19 04:01:00,13.3,5.4,30.14,WNW,283,0.0,0.0,70,0.00,,,0.00,WUHU216DAVISVP2,2013-02-19 09:01:00,
2013-02-19 04:06:00,13.4,5.2,30.13,WNW,283,0.0,0.0,69,0.00,,,0.00,WUHU216DAVISVP2,2013-02-19 09:06:00,
2013-02-19 04:11:00,13.5,5.6,30.13,WNW,282,0.0,0.0,70,0.00,,,0.00,WUHU216DAVISVP2,2013-02-19 09:11:00,
2013-02-19 04:16:00,13.7,5.5,30.13,WNW,283,0.0,0.0,69,0.00,,,0.00,WUHU216DAVISVP2,2013-02-19 09:16:00,
2013-02-19 04:21:00,13.8,5.6,30.12,WNW,283,0.0,0.0,69,0.00,,,0.00,WUHU216DAVISVP2,2013-02-19 09:21:00,
2013-02-19 04:26:00,13.9,6.0,30.12,WNW,283,0.0,0.0,70,0.00,,,0.00,WUHU216DAVISVP2,2013-02-19 09:26:00,
2013-02-19 04:31:00,14.0,5.1,30.12,WNW,283,0.0,0.0,67,0.00,,,0.00,WUHU216DAVISVP2,2013-02-19 09:31:00,
2013-02-19 04:36:00,14.0,4.8,30.12,WNW,283,0.0,0.0,66,0.00,,,0.00,WUHU216DAVISVP2,2013-02-19 09:36:00,
2013-02-19 04:41:00,14.1,6.2,30.11,WNW,283,0.0,0.0,70,0.00,,,0.00,WUHU216DAVISVP2,2013-02-19 09:41:00,
2013-02-19 04:46:00,14.0,6.1,30.11,WNW,283,0.0,0.0,70,0.00,,,0.00,WUHU216DAVISVP2,2013-02-19 09:46:00,
2013-02-19 04:51:00,13.9,5.3,30.11,WNW,282,0.0,0.0,68,0.00,,,0.00,WUHU216DAVISVP2,2013-02-19 09:51:00,
2013-02-19 04:56:00,14.0,4.8,30.11,WNW,282,0.0,0.0,66,0.00,,,0.00,WUHU216DAVISVP2,2013-02-19 09:56:00,
2013-02-19 05:01:00,14.1,5.8,30.10,WNW,283,0.0,0.0,69,0.00,,,0.00,WUHU216DAVISVP2,2013-02-19 10:01:00,
2013-02-19 05:06:00,14.2,5.6,30.10,WNW,282,0.0,0.0,68,0.00,,,0.00,WUHU216DAVISVP2,2013-02-19 10:06:00,
2013-02-19 05:11:00,14.4,6.4,30.10,WNW,283,1.0,1.0,70,0.00,,,0.00,WUHU216DAVISVP2,2013-02-19 10:11:00,
2013-02-19 05:16:00,14.6,6.9,30.10,WNW,282,0.0,1.0,71,0.00,,,0.00,WUHU216DAVISVP2,2013-02-19 10:16:00,
2013-02-19 05:21:00,14.9,7.5,30.10,WNW,282,0.0,1.0,72,0.00,,,0.00,WUHU216DAVISVP2,2013-02-19 10:21:00,
2013-02-19 05:26:00,15.1,7.7,30.10,WNW,283,0.0,1.0,72,0.00,,,0.00,WUHU216DAVISVP2,2013-02-19 10:26:00,
2013-02-19 05:31:00,15.2,7.5,30.10,WNW,282,0.0,1.0,71,0.00,,,0.00,WUHU216DAVISVP2,2013-02-19 10:31:00,
2013-02-19 05:36:00,15.3,7.3,30.10,WNW,283,0.0,1.0,70,0.00,,,0.00,WUHU216DAVISVP2,2013-02-19 10:36:00,
2013-02-19 05:41:00,15.4,8.0,30.10,WNW,283,0.0,1.0,72,0.00,,,0.00,WUHU216DAVISVP2,2013-02-19 10:41:00,
2013-02-19 05:46:00,15.6,8.2,30.10,WNW,283,0.0,0.0,72,0.00,,,0.00,WUHU216DAVISVP2,2013-02-19 10:46:00,
2013-02-19 05:51:00,15.7,8.3,30.10,WNW,283,0.0,0.0,72,0.00,,,0.00,WUHU216DAVISVP2,2013-02-19 10:51:00,
2013-02-19 05:56:00,15.8,9.0,30.10,WNW,282,0.0,0.0,74,0.00,,,0.00,WUHU216DAVISVP2,2013-02-19 10:56:00,
2013-02-19 06:01:00,15.9,9.1,30.10,WNW,283,0.0,0.0,74,0.00,,,0.00,WUHU216DAVISVP2,2013-02-19 11:01:00,
2013-02-19 06:06:00,15.8,8.1,30.09,WNW,283,0.0,0.0,71,0.00,,,0.00,WUHU216DAVISVP2,2013-02-19 11:06:00,
2013-02-19 06:11:00,15.6,7.9,30.09,WNW,283,0.0,0.0,71,0.00,,,0.00,WUHU216DAVISVP2,2013-02-19 11:11:00,
2013-02-19 06:16:00,15.5,7.8,30.09,WNW,282,0.0,0.0,71,0.00,,,0.00,WUHU216DAVISVP2,2013-02-19 11:16:00,
2013-02-19 06:21:00,15.2,7.8,30.09,WNW,283,0.0,0.0,72,0.00,,,0.00,WUHU216DAVISVP2,2013-02-19 11:21:00,
2013-02-19 06:26:00,15.0,7.6,30.09,WNW,283,0.0,0.0,72,0.00,,,0.00,WUHU216DAVISVP2,2013-02-19 11:26:00,
2013-02-19 06:31:00,14.8,7.4,30.09,WNW,283,0.0,0.0,72,0.00,,,0.00,WUHU216DAVISVP2,2013-02-19 11:31:00,
2013-02-19 06:36:00,14.6,7.6,30.10,WNW,283,0.0,0.0,73,0.00,,,0.00,WUHU216DAVISVP2,2013-02-19 11:36:00,
2013-02-19 06:41:00,14.5,6.9,30.10,WNW,283,0.0,1.0,71,0.00,,,0.00,WUHU216DAVISVP2,2013-02-19 11:41:00,
2013-02-19 06:46:00,14.4,6.8,30.10,WNW,283,0.0,1.0,71,0.00,,,0.00,WUHU216DAVISVP2,2013-02-19 11:46:00,
2013-02-19 06:51:00,14.4,6.8,30.10,WNW,283,0.0,1.0,71,0.00,,,0.00,WUHU216DAVISVP2,2013-02-19 11:51:00,
2013-02-19 06:56:00,14.3,7.0,30.10,WNW,283,0.0,1.0,72,0.00,,,0.00,WUHU216DAVISVP2,2013-02-19 11:56:00,
2013-02-19 07:01:00,14.4,7.7,30.09,WNW,283,0.0,0.0,74,0.00,,,0.00,WUHU216DAVISVP2,2013-02-19 12:01:00,
2013-02-19 07:06:00,14.4,7.9,30.09,WNW,282,0.0,0.0,75,0.00,,,0.00,WUHU216DAVISVP2,2013-02-19 12:06:00,
2013-02-19 07:11:00,14.4,7.1,30.09,WNW,283,0.0,0.0,72,0.00,,,0.00,WUHU216DAVISVP2,2013-02-19 12:11:00,
2013-02-19 07:16:00,14.5,6.9,30.09,WNW,283,0.0,0.0,71,0.00,,,0.00,WUHU216DAVISVP2,2013-02-19 12:16:00,
2013-02-19 07:21:00,14.6,6.9,30.09,WNW,282,0.0,0.0,71,0.00,,,0.00,WUHU216DAVISVP2,2013-02-19 12:21:00,
2013-02-19 07:26:00,14.8,7.4,30.09,WNW,282,0.0,0.0,72,0.00,,,0.00,WUHU216DAVISVP2,2013-02-19 12:26:00,
2013-02-19 07:31:00,15.0,7.6,30.08,WNW,282,0.0,0.0,72,0.00,,,0.00,WUHU216DAVISVP2,2013-02-19 12:31:00,
2013-02-19 07:36:00,15.1,7.4,30.08,WNW,283,0.0,0.0,71,0.00,,,0.00,WUHU216DAVISVP2,2013-02-19 12:36:00,
2013-02-19 07:41:00,15.4,7.7,30.08,WNW,282,0.0,0.0,71,0.00,,,0.00,WUHU216DAVISVP2,2013-02-19 12:41:00,
2013-02-19 07:46:00,15.9,7.9,30.08,WNW,282,0.0,0.0,70,0.00,,,0.00,WUHU216DAVISVP2,2013-02-19 12:46:00,
2013-02-19 07:51:00,16.5,8.2,30.08,WNW,283,1.0,1.0,69,0.00,,,0.00,WUHU216DAVISVP2,2013-02-19 12:51:00,
2013-02-19 07:56:00,17.0,8.6,30.08,WNW,282,0.0,1.0,69,0.00,,,0.00,WUHU216DAVISVP2,2013-02-19 12:56:00,
2013-02-19 08:01:00,17.4,9.3,30.08,WNW,282,0.0,1.0,70,0.00,,,0.00,WUHU216DAVISVP2,2013-02-19 13:01:00,
2013-02-19 08:06:00,17.7,9.3,30.07,WNW,283,0.0,1.0,69,0.00,,,0.00,WUHU216DAVISVP2,2013-02-19 13:06:00,
2013-02-19 08:11:00,18.2,9.8,30.07,WNW,283,0.0,0.0,69,0.00,,,0.00,WUHU216DAVISVP2,2013-02-19 13:11:00,
2013-02-19 08:16:00,18.7,9.6,30.07,WNW,283,0.0,0.0,67,0.00,,,0.00,WUHU216DAVISVP2,2013-02-19 13:16:00,
2013-02-19 08:21:00,19.4,9.3,30.07,WNW,283,0.0,0.0,64,0.00,,,0.00,WUHU216DAVISVP2,2013-02-19 13:21:00,
2013-02-19 08:26:00,20.2,9.7,30.07,WNW,283,0.0,0.0,63,0.00,,,0.00,WUHU216DAVISVP2,2013-02-19 13:26:00,
2013-02-19 08:31:00,20.8,9.1,30.07,WNW,283,0.0,0.0,60,0.00,,,0.00,WUHU216DAVISVP2,2013-02-19 13:31:00,
2013-02-19 08:36:00,21.5,8.2,30.07,WNW,283,1.0,1.0,56,0.00,,,0.00,WUHU216DAVISVP2,2013-02-19 13:36:00,
2013-02-19 08:41:00,22.1,7.5,30.07,WNW,283,0.0,1.0,53,0.00,,,0.00,WUHU216DAVISVP2,2013-02-19 13:41:00,
2013-02-19 08:46:00,22.7,7.7,30.07,WNW,283,0.0,1.0,52,0.00,,,0.00,WUHU216DAVISVP2,2013-02-19 13:46:00,
2013-02-19 08:51:00,23.5,8.0,30.06,WNW,283,1.0,2.0,51,0.00,,,0.00,WUHU216DAVISVP2,2013-02-19 13:51:00,
2013-02-19 08:56:00,24.2,6.8,30.06,WNW,283,1.2,2.0,47,0.00,,,0.00,WUHU216DAVISVP2,2013-02-19 13:56:00,
2013-02-19 09:01:00,25.0,7.0,30.06,WNW,282,0.0,2.0,46,0.00,,,0.00,WUHU216DAVISVP2,2013-02-19 14:01:00,
2013-02-19 09:06:00,25.5,7.0,30.05,WNW,283,1.0,2.0,45,0.00,,,0.00,WUHU216DAVISVP2,2013-02-19 14:06:00,
2013-02-19 09:11:00,26.1,7.0,30.05,WNW,283,0.0,2.0,44,0.00,,,0.00,WUHU216DAVISVP2,2013-02-19 14:11:00,
2013-02-19 09:16:00,26.8,8.7,30.05,WNW,283,0.0,2.0,46,0.00,,,0.00,WUHU216DAVISVP2,2013-02-19 14:16:00,
2013-02-19 09:21:00,27.5,7.8,30.05,WNW,283,1.6,3.0,43,0.00,,,0.00,WUHU216DAVISVP2,2013-02-19 14:21:00,
2013-02-19 09:26:00,28.0,7.7,30.05,WNW,283,2.0,3.0,42,0.00,,,0.00,WUHU216DAVISVP2,2013-02-19 14:26:00,
2013-02-19 09:31:00,28.3,7.9,30.05,WNW,283,1.0,3.0,42,0.00,,,0.00,WUHU216DAVISVP2,2013-02-19 14:31:00,
2013-02-19 09:36:00,28.7,8.3,30.05,WNW,286,3.0,3.0,42,0.00,,,0.00,WUHU216DAVISVP2,2013-02-19 14:36:00,
2013-02-19 09:41:00,29.0,8.0,30.05,North,11,1.5,3.0,41,0.00,,,0.00,WUHU216DAVISVP2,2013-02-19 14:41:00,
2013-02-19 09:46:00,29.4,8.4,30.05,North,11,2.0,3.0,41,0.00,,,0.00,WUHU216DAVISVP2,2013-02-19 14:46:00,
2013-02-19 09:51:00,29.7,8.1,30.05,NNE,17,1.6,3.0,40,0.00,,,0.00,WUHU216DAVISVP2,2013-02-19 14:51:00,
2013-02-19 09:56:00,30.2,8.6,30.05,NNE,17,3.0,3.0,40,0.00,,,0.00,WUHU216DAVISVP2,2013-02-19 14:56:00,
2013-02-19 10:01:00,30.5,8.8,30.04,East,81,1.0,3.0,40,0.00,,,0.00,WUHU216DAVISVP2,2013-02-19 15:01:00,
2013-02-19 10:06:00,30.9,8.6,30.04,East,81,2.0,3.0,39,0.00,,,0.00,WUHU216DAVISVP2,2013-02-19 15:06:00,
2013-02-19 10:11:00,31.4,9.1,30.03,ENE,78,1.1,3.0,39,0.00,,,0.00,WUHU216DAVISVP2,2013-02-19 15:11:00,
2013-02-19 10:16:00,32.0,9.6,30.03,ENE,78,1.3,3.0,39,0.00,,,0.00,WUHU216DAVISVP2,2013-02-19 15:16:00,
2013-02-19 10:21:00,32.5,9.5,30.03,ESE,112,1.6,3.0,38,0.00,,,0.00,WUHU216DAVISVP2,2013-02-19 15:21:00,
2013-02-19 10:26:00,33.0,9.3,30.02,ESE,114,1.0,3.0,37,0.00,,,0.00,WUHU216DAVISVP2,2013-02-19 15:26:00,
2013-02-19 10:31:00,33.4,10.3,30.02,NNE,27,0.0,3.0,38,0.00,,,0.00,WUHU216DAVISVP2,2013-02-19 15:31:00,
2013-02-19 10:36:00,33.5,10.0,30.02,East,96,3.0,5.0,37,0.00,,,0.00,WUHU216DAVISVP2,2013-02-19 15:36:00,
2013-02-19 10:41:00,33.3,9.8,30.02,ESE,102,1.6,6.0,37,0.00,,,0.00,WUHU216DAVISVP2,2013-02-19 15:41:00,
2013-02-19 10:46:00,33.4,9.9,30.02,ENE,69,1.3,6.0,37,0.00,,,0.00,WUHU216DAVISVP2,2013-02-19 15:46:00,
2013-02-19 10:51:00,33.5,10.0,30.01,NE,46,2.0,6.0,37,0.00,,,0.00,WUHU216DAVISVP2,2013-02-19 15:51:00,
2013-02-19 10:56:00,33.4,9.9,30.01,NE,40,4.0,6.0,37,0.00,,,0.00,WUHU216DAVISVP2,2013-02-19 15:56:00,
2013-02-19 11:01:00,33.2,9.7,30.01,NE,42,2.5,5.0,37,0.00,,,0.00,WUHU216DAVISVP2,2013-02-19 16:01:00,
2013-02-19 11:06:00,33.4,10.5,30.01,East,101,3.0,5.0,38,0.00,,,0.00,WUHU216DAVISVP2,2013-02-19 16:06:00,
2013-02-19 11:11:00,33.4,9.9,30.01,SE,129,2.0,5.0,37,0.00,,,0.00,WUHU216DAVISVP2,2013-02-19 16:11:00,
2013-02-19 11:16:00,33.6,10.7,30.01,SE,134,1.0,5.0,38,0.00,,,0.00,WUHU216DAVISVP2,2013-02-19 16:16:00,
2013-02-19 11:21:00,33.9,10.3,30.01,East,88,1.9,5.0,37,0.00,,,0.00,WUHU216DAVISVP2,2013-02-19 16:21:00,
2013-02-19 11:26:00,34.2,10.6,30.01,NE,51,3.0,5.0,37,0.00,,,0.00,WUHU216DAVISVP2,2013-02-19 16:26:00,
2013-02-19 11:31:00,34.7,11.0,30.01,NE,53,2.0,4.0,37,0.00,,,0.00,WUHU216DAVISVP2,2013-02-19 16:31:00,
2013-02-19 11:36:00,35.1,11.4,30.00,NE,50,2.0,4.0,37,0.00,,,0.00,WUHU216DAVISVP2,2013-02-19 16:36:00,
2013-02-19 11:41:00,35.8,12.0,29.99,NE,54,2.5,5.0,37,0.00,,,0.00,WUHU216DAVISVP2,2013-02-19 16:41:00,
2013-02-19 11:46:00,36.5,12.7,29.98,ENE,61,2.0,5.0,37,0.00,,,0.00,WUHU216DAVISVP2,2013-02-19 16:46:00,
2013-02-19 11:51:00,36.9,13.6,29.98,ENE,65,3.3,6.0,38,0.00,,,0.00,WUHU216DAVISVP2,2013-02-19 16:51:00,
2013-02-19 11:56:00,37.3,14.0,29.98,SSE,148,1.6,6.0,38,0.00,,,0.00,WUHU216DAVISVP2,2013-02-19 16:56:00,
2013-02-19 12:01:00,37.7,14.9,29.97,South,171,1.4,6.0,39,0.00,,,0.00,WUHU216DAVISVP2,2013-02-19 17:01:00,
2013-02-19 12:06:00,38.1,14.7,29.97,SE,141,1.5,6.0,38,0.00,,,0.00,WUHU216DAVISVP2,2013-02-19 17:06:00,
2013-02-19 12:11:00,38.5,14.9,29.96,SE,139,1.7,5.0,38,0.00,,,0.00,WUHU216DAVISVP2,2013-02-19 17:11:00,
2013-02-19 12:16:00,38.7,15.0,29.96,SE,135,4.0,5.0,38,0.00,,,0.00,WUHU216DAVISVP2,2013-02-19 17:16:00,
2013-02-19 12:21:00,38.7,15.0,29.97,SE,144,3.0,5.0,38,0.00,,,0.00,WUHU216DAVISVP2,2013-02-19 17:21:00,
2013-02-19 12:26:00,38.7,15.6,29.96,SSW,193,2.0,5.0,39,0.00,,,0.00,WUHU216DAVISVP2,2013-02-19 17:26:00,
2013-02-19 12:31:00,38.8,15.7,29.96,SSE,150,2.3,5.0,39,0.00,,,0.00,WUHU216DAVISVP2,2013-02-19 17:31:00,
2013-02-19 12:36:00,39.1,16.6,29.95,SE,134,1.9,5.0,40,0.00,,,0.00,WUHU216DAVISVP2,2013-02-19 17:36:00,
2013-02-19 12:41:00,39.2,16.7,29.95,SE,134,1.4,5.0,40,0.00,,,0.00,WUHU216DAVISVP2,2013-02-19 17:41:00,
2013-02-19 12:46:00,39.4,16.9,29.95,SSE,152,2.0,5.0,40,0.00,,,0.00,WUHU216DAVISVP2,2013-02-19 17:46:00,
2013-02-19 12:51:00,39.8,17.8,29.94,SSE,152,1.8,5.0,41,0.00,,,0.00,WUHU216DAVISVP2,2013-02-19 17:51:00,
2013-02-19 12:56:00,40.3,18.3,29.94,SSW,203,2.0,5.0,41,0.00,,,0.00,WUHU216DAVISVP2,2013-02-19 17:56:00,
2013-02-19 13:01:00,40.7,18.6,29.93,South,177,1.2,5.0,41,0.00,,,0.00,WUHU216DAVISVP2,2013-02-19 18:01:00,
2013-02-19 13:06:00,41.0,18.3,29.93,SSW,196,1.0,5.0,40,0.00,,,0.00,WUHU216DAVISVP2,2013-02-19 18:06:00,
2013-02-19 13:11:00,41.1,18.4,29.92,SE,140,2.0,5.0,40,0.00,,,0.00,WUHU216DAVISVP2,2013-02-19 18:11:00,
2013-02-19 13:16:00,40.8,19.3,29.91,SSE,163,3.0,4.0,42,0.00,,,0.00,WUHU216DAVISVP2,2013-02-19 18:16:00,
2013-02-19 13:21:00,40.7,19.2,29.91,SSE,163,1.1,4.0,42,0.00,,,0.00,WUHU216DAVISVP2,2013-02-19 18:21:00,
2013-02-19 13:26:00,40.7,19.8,29.91,SSE,159,1.4,5.0,43,0.00,,,0.00,WUHU216DAVISVP2,2013-02-19 18:26:00,
2013-02-19 13:31:00,40.7,20.3,29.91,SE,137,2.8,5.0,44,0.00,,,0.00,WUHU216DAVISVP2,2013-02-19 18:31:00,
2013-02-19 13:36:00,40.7,20.9,29.91,South,175,1.5,9.0,45,0.00,,,0.00,WUHU216DAVISVP2,2013-02-19 18:36:00,
2013-02-19 13:41:00,40.7,21.4,29.91,ESE,105,2.0,9.0,46,0.00,,,0.00,WUHU216DAVISVP2,2013-02-19 18:41:00,
2013-02-19 13:47:00,40.6,21.8,29.91,SSE,160,3.0,9.0,47,0.00,,,0.00,WUHU216DAVISVP2,2013-02-19 18:47:00,
2013-02-19 13:52:00,40.5,22.3,29.91,South,178,1.3,9.0,48,0.00,,,0.00,WUHU216DAVISVP2,2013-02-19 18:52:00,
2013-02-19 13:57:00,40.5,21.7,29.91,South,178,2.0,4.0,47,0.00,,,0.00,WUHU216DAVISVP2,2013-02-19 18:57:00,
2013-02-19 14:02:00,40.6,22.9,29.90,South,178,0.0,4.0,49,0.00,,,0.00,WUHU216DAVISVP2,2013-02-19 19:02:00,
2013-02-19 14:07:00,40.6,22.9,29.89,SSE,161,2.0,3.0,49,0.00,,,0.00,WUHU216DAVISVP2,2013-02-19 19:07:00,
2013-02-19 14:11:00,40.6,23.4,29.89,SSE,161,1.0,3.0,50,0.00,,,0.00,WUHU216DAVISVP2,2013-02-19 19:11:00,
2013-02-19 14:16:00,40.7,23.9,29.89,SSE,153,1.6,3.0,51,0.00,,,0.00,WUHU216DAVISVP2,2013-02-19 19:16:00,
2013-02-19 14:22:00,40.8,24.0,29.88,South,169,1.3,3.0,51,0.00,,,0.00,WUHU216DAVISVP2,2013-02-19 19:22:00,
2013-02-19 14:27:00,41.0,25.2,29.88,South,171,1.0,3.0,53,0.00,,,0.00,WUHU216DAVISVP2,2013-02-19 19:27:00,
2013-02-19 14:32:00,41.1,24.8,29.88,South,171,1.0,3.0,52,0.00,,,0.00,WUHU216DAVISVP2,2013-02-19 19:32:00,
2013-02-19 14:37:00,41.1,24.8,29.88,SSE,153,2.0,4.0,52,0.00,,,0.00,WUHU216DAVISVP2,2013-02-19 19:37:00,
2013-02-19 14:42:00,41.1,25.3,29.87,South,169,2.0,4.0,53,0.00,,,0.00,WUHU216DAVISVP2,2013-02-19 19:42:00,
2013-02-19 14:47:00,41.0,25.6,29.87,SSE,154,3.0,5.0,54,0.00,,,0.00,WUHU216DAVISVP2,2013-02-19 19:47:00,
2013-02-19 14:52:00,41.1,26.2,29.86,ESE,123,1.0,5.0,55,0.00,,,0.00,WUHU216DAVISVP2,2013-02-19 19:52:00,
2013-02-19 14:57:00,41.1,26.2,29.86,SSE,150,3.0,5.0,55,0.00,,,0.00,WUHU216DAVISVP2,2013-02-19 19:57:00,
2013-02-19 15:02:00,41.2,26.3,29.85,SE,138,1.0,5.0,55,0.00,,,0.00,WUHU216DAVISVP2,2013-02-19 20:02:00,
2013-02-19 15:07:00,41.3,26.8,29.85,SE,128,1.0,5.0,56,0.00,,,0.00,WUHU216DAVISVP2,2013-02-19 20:07:00,
2013-02-19 15:13:00,41.4,26.9,29.84,SE,128,1.0,5.0,56,0.00,,,0.00,WUHU216DAVISVP2,2013-02-19 20:13:00,
2013-02-19 15:17:00,41.4,26.5,29.84,SE,128,1.4,5.0,55,0.00,,,0.00,WUHU216DAVISVP2,2013-02-19 20:17:00,
2013-02-19 15:22:00,41.4,26.9,29.83,ESE,102,0.0,4.0,56,0.00,,,0.00,WUHU216DAVISVP2,2013-02-19 20:22:00,
2013-02-19 15:27:00,41.4,26.9,29.83,ESE,102,1.2,4.0,56,0.00,,,0.00,WUHU216DAVISVP2,2013-02-19 20:27:00,
2013-02-19 15:32:00,41.4,27.3,29.82,ESE,102,0.0,4.0,57,0.00,,,0.00,WUHU216DAVISVP2,2013-02-19 20:32:00,
2013-02-19 15:37:00,41.3,27.2,29.81,ESE,102,1.0,2.0,57,0.00,,,0.00,WUHU216DAVISVP2,2013-02-19 20:37:00,
2013-02-19 15:42:00,41.3,27.2,29.81,ESE,102,0.0,2.0,57,0.00,,,0.00,WUHU216DAVISVP2,2013-02-19 20:42:00,
2013-02-19 15:47:00,41.2,27.6,29.80,ESE,102,1.0,1.0,58,0.00,,,0.00,WUHU216DAVISVP2,2013-02-19 20:47:00,
2013-02-19 15:52:00,41.0,27.4,29.80,ESE,102,1.0,1.0,58,0.00,,,0.00,WUHU216DAVISVP2,2013-02-19 20:52:00,
2013-02-19 15:57:00,41.1,27.9,29.80,ESE,102,1.0,1.0,59,0.00,,,0.00,WUHU216DAVISVP2,2013-02-19 20:57:00,
2013-02-19 16:02:00,41.1,27.5,29.80,ESE,123,3.0,5.0,58,0.00,,,0.00,WUHU216DAVISVP2,2013-02-19 21:02:00,
2013-02-19 16:07:00,41.4,27.8,29.79,East,100,1.0,5.0,58,0.00,,,0.00,WUHU216DAVISVP2,2013-02-19 21:07:00,
2013-02-19 16:13:00,41.6,28.0,29.79,East,100,1.3,5.0,58,0.00,,,0.00,WUHU216DAVISVP2,2013-02-19 21:13:00,
2013-02-19 16:18:00,41.6,27.5,29.79,ESE,107,2.0,5.0,57,0.00,,,0.00,WUHU216DAVISVP2,2013-02-19 21:18:00,
2013-02-19 16:23:00,41.4,26.9,29.79,SSE,147,2.0,6.0,56,0.00,,,0.00,WUHU216DAVISVP2,2013-02-19 21:23:00,
2013-02-19 16:28:00,41.2,26.7,29.79,ESE,103,2.0,6.0,56,0.00,,,0.00,WUHU216DAVISVP2,2013-02-19 21:28:00,
2013-02-19 16:33:00,40.9,26.4,29.79,East,90,1.2,6.0,56,0.00,,,0.00,WUHU216DAVISVP2,2013-02-19 21:33:00,
2013-02-19 16:38:00,40.7,26.7,29.78,East,94,1.5,6.0,57,0.00,,,0.00,WUHU216DAVISVP2,2013-02-19 21:38:00,
2013-02-19 16:43:00,40.5,26.9,29.79,East,98,0.0,5.0,58,0.00,,,0.00,WUHU216DAVISVP2,2013-02-19 21:43:00,
2013-02-19 16:49:00,40.4,26.8,29.78,East,99,1.5,2.0,58,0.00,,,0.00,WUHU216DAVISVP2,2013-02-19 21:49:00,
2013-02-19 16:54:00,40.1,27.4,29.78,SE,139,1.3,3.0,60,0.00,,,0.00,WUHU216DAVISVP2,2013-02-19 21:54:00,
2013-02-19 16:59:00,39.8,27.5,29.78,SE,139,0.0,3.0,61,0.00,,,0.00,WUHU216DAVISVP2,2013-02-19 21:59:00,
2013-02-19 17:04:00,39.5,27.6,29.77,SE,131,1.9,3.0,62,0.00,,,0.00,WUHU216DAVISVP2,2013-02-19 22:04:00,
2013-02-19 17:09:00,39.6,27.7,29.78,SE,128,0.0,3.0,62,0.00,,,0.00,WUHU216DAVISVP2,2013-02-19 22:09:00,
2013-02-19 17:14:00,39.4,27.5,29.77,SE,128,0.0,3.0,62,0.00,,,0.00,WUHU216DAVISVP2,2013-02-19 22:14:00,
2013-02-19 17:19:00,39.2,27.7,29.77,SE,128,0.0,3.0,63,0.00,,,0.00,WUHU216DAVISVP2,2013-02-19 22:19:00,
2013-02-19 17:24:00,39.0,27.9,29.77,SE,128,1.2,2.0,64,0.00,,,0.00,WUHU216DAVISVP2,2013-02-19 22:24:00,
2013-02-19 17:29:00,38.6,27.9,29.77,SE,128,1.0,2.0,65,0.00,,,0.00,WUHU216DAVISVP2,2013-02-19 22:29:00,
2013-02-19 17:34:00,38.3,28.0,29.76,SE,128,0.0,2.0,66,0.00,,,0.00,WUHU216DAVISVP2,2013-02-19 22:34:00,
2013-02-19 17:39:00,38.1,28.5,29.76,SE,128,1.0,2.0,68,0.00,,,0.00,WUHU216DAVISVP2,2013-02-19 22:39:00,
2013-02-19 17:44:00,37.9,28.4,29.76,SE,128,0.0,1.0,68,0.00,,,0.00,WUHU216DAVISVP2,2013-02-19 22:44:00,
2013-02-19 17:49:00,37.8,28.6,29.75,SE,128,0.0,1.0,69,0.00,,,0.00,WUHU216DAVISVP2,2013-02-19 22:49:00,
2013-02-19 17:54:00,37.8,29.0,29.75,SE,128,0.0,1.0,70,0.00,,,0.00,WUHU216DAVISVP2,2013-02-19 22:54:00,
2013-02-19 17:59:00,37.7,29.2,29.75,SE,128,0.0,0.0,71,0.00,,,0.00,WUHU216DAVISVP2,2013-02-19 22:59:00,
2013-02-19 18:04:00,37.6,30.1,29.75,SE,129,0.0,2.0,74,0.00,,,0.00,WUHU216DAVISVP2,2013-02-19 23:04:00,
2013-02-19 18:09:00,37.5,30.7,29.74,SE,129,1.0,2.0,76,0.00,,,0.00,WUHU216DAVISVP2,2013-02-19 23:09:00,
2013-02-19 18:14:00,37.7,31.2,29.74,SE,129,1.0,2.0,77,0.00,,,0.00,WUHU216DAVISVP2,2013-02-19 23:14:00,
2013-02-19 18:19:00,37.7,31.5,29.74,SE,129,0.0,2.0,78,0.00,,,0.00,WUHU216DAVISVP2,2013-02-19 23:19:00,
2013-02-19 18:24:00,37.6,31.7,29.74,SE,129,0.0,1.0,79,0.00,,,0.00,WUHU216DAVISVP2,2013-02-19 23:24:00,
2013-02-19 18:29:00,37.4,31.8,29.73,SE,129,0.0,1.0,80,0.00,,,0.00,WUHU216DAVISVP2,2013-02-19 23:29:00,
2013-02-19 18:34:00,37.1,32.1,29.73,SE,129,0.0,1.0,82,0.00,,,0.00,WUHU216DAVISVP2,2013-02-19 23:34:00,
2013-02-19 18:39:00,36.8,32.1,29.72,SE,129,0.0,1.0,83,0.00,,,0.00,WUHU216DAVISVP2,2013-02-19 23:39:00,
2013-02-19 18:44:00,36.5,32.4,29.72,SE,129,0.0,1.0,85,0.01,,,0.01,WUHU216DAVISVP2,2013-02-19 23:44:00,
2013-02-19 18:49:00,36.4,32.9,29.72,SE,129,0.0,1.0,87,0.01,,,0.01,WUHU216DAVISVP2,2013-02-19 23:49:00,
2013-02-19 18:54:00,36.2,33.2,29.72,SE,129,0.0,1.0,89,0.01,,,0.01,WUHU216DAVISVP2,2013-02-19 23:54:00,
2013-02-19 18:59:00,36.1,33.4,29.71,SE,129,0.0,1.0,90,0.01,,,0.01,WUHU216DAVISVP2,2013-02-19 23:59:00,
2013-02-19 19:04:00,35.9,33.5,29.71,SE,129,0.0,1.0,91,0.02,,,0.02,WUHU216DAVISVP2,2013-02-20 00:04:00,
2013-02-19 19:09:00,36.0,34.1,29.71,SE,129,0.0,0.0,93,0.02,,,0.02,WUHU216DAVISVP2,2013-02-20 00:09:00,
2013-02-19 19:14:00,35.7,33.6,29.70,SE,129,0.0,0.0,92,0.02,,,0.02,WUHU216DAVISVP2,2013-02-20 00:14:00,
2013-02-19 19:19:00,35.4,33.3,29.70,SE,129,0.0,0.0,92,0.03,,,0.03,WUHU216DAVISVP2,2013-02-20 00:19:00,
2013-02-19 19:24:00,35.2,33.3,29.70,SE,129,0.0,0.0,93,0.03,,,0.03,WUHU216DAVISVP2,2013-02-20 00:24:00,
2013-02-19 19:29:00,35.2,33.3,29.69,SE,129,0.0,0.0,93,0.03,,,0.03,WUHU216DAVISVP2,2013-02-20 00:29:00,
2013-02-19 19:34:00,35.2,33.6,29.69,SE,129,0.0,0.0,94,0.03,,,0.03,WUHU216DAVISVP2,2013-02-20 00:34:00,
2013-02-19 19:39:00,35.2,33.6,29.69,SE,129,0.0,0.0,94,0.03,,,0.03,WUHU216DAVISVP2,2013-02-20 00:39:00,
2013-02-19 19:44:00,35.0,33.4,29.68,SE,129,0.0,0.0,94,0.03,,,0.04,WUHU216DAVISVP2,2013-02-20 00:44:00,
2013-02-19 19:49:00,35.0,33.4,29.68,SE,129,0.0,0.0,94,0.03,,,0.04,WUHU216DAVISVP2,2013-02-20 00:49:00,
2013-02-19 19:54:00,34.9,33.6,29.68,SE,129,0.0,0.0,95,0.04,,,0.05,WUHU216DAVISVP2,2013-02-20 00:54:00,
2013-02-19 19:59:00,35.0,33.7,29.68,SE,129,0.0,0.0,95,0.04,,,0.05,WUHU216DAVISVP2,2013-02-20 00:59:00,
2013-02-19 20:04:00,34.8,33.5,29.67,SE,129,0.0,2.0,95,0.03,,,0.05,WUHU216DAVISVP2,2013-02-20 01:04:00,
2013-02-19 20:09:00,34.8,33.5,29.66,SE,129,0.0,2.0,95,0.03,,,0.05,WUHU216DAVISVP2,2013-02-20 01:09:00,
2013-02-19 20:14:00,34.8,33.5,29.66,SE,129,0.0,2.0,95,0.04,,,0.06,WUHU216DAVISVP2,2013-02-20 01:14:00,
2013-02-19 20:19:00,34.8,33.7,29.66,SE,129,0.0,2.0,96,0.03,,,0.06,WUHU216DAVISVP2,2013-02-20 01:19:00,
2013-02-19 20:24:00,34.8,33.5,29.66,SE,129,0.0,1.0,95,0.03,,,0.06,WUHU216DAVISVP2,2013-02-20 01:24:00,
2013-02-19 20:29:00,34.7,33.4,29.65,SE,129,0.0,0.0,95,0.03,,,0.06,WUHU216DAVISVP2,2013-02-20 01:29:00,
2013-02-19 20:34:00,34.8,33.7,29.65,SE,129,0.0,1.0,96,0.03,,,0.06,WUHU216DAVISVP2,2013-02-20 01:34:00,
2013-02-19 20:39:00,34.8,33.7,29.64,SE,129,0.0,1.0,96,0.03,,,0.06,WUHU216DAVISVP2,2013-02-20 01:39:00,
2013-02-19 20:44:00,34.9,33.8,29.64,SE,129,0.0,1.0,96,0.02,,,0.06,WUHU216DAVISVP2,2013-02-20 01:44:00,
2013-02-19 20:49:00,35.1,34.0,29.64,SE,129,0.0,1.0,96,0.03,,,0.07,WUHU216DAVISVP2,2013-02-20 01:49:00,
2013-02-19 20:54:00,35.3,34.5,29.64,SE,129,0.0,1.0,97,0.02,,,0.07,WUHU216DAVISVP2,2013-02-20 01:54:00,
2013-02-19 20:59:00,35.1,34.0,29.64,SE,129,0.0,1.0,96,0.02,,,0.07,WUHU216DAVISVP2,2013-02-20 01:59:00,
2013-02-19 21:04:00,35.1,34.0,29.64,SE,129,0.0,1.0,96,0.02,,,0.07,WUHU216DAVISVP2,2013-02-20 02:04:00,
2013-02-19 21:09:00,34.9,33.8,29.63,SE,129,0.0,0.0,96,0.02,,,0.07,WUHU216DAVISVP2,2013-02-20 02:09:00,
2013-02-19 21:14:00,34.7,33.6,29.63,SE,129,0.0,0.0,96,0.02,,,0.08,WUHU216DAVISVP2,2013-02-20 02:14:00,
2013-02-19 21:19:00,34.5,33.4,29.61,SE,129,0.0,0.0,96,0.02,,,0.08,WUHU216DAVISVP2,2013-02-20 02:19:00,
2013-02-19 21:24:00,34.4,33.3,29.60,SE,129,0.0,0.0,96,0.02,,,0.08,WUHU216DAVISVP2,2013-02-20 02:24:00,
2013-02-19 21:29:00,34.5,33.4,29.60,SE,129,0.0,0.0,96,0.03,,,0.09,WUHU216DAVISVP2,2013-02-20 02:29:00,
2013-02-19 21:34:00,34.6,33.5,29.58,SE,129,0.0,0.0,96,0.03,,,0.09,WUHU216DAVISVP2,2013-02-20 02:34:00,
2013-02-19 21:39:00,34.6,33.5,29.60,SE,129,1.0,1.0,96,0.03,,,0.09,WUHU216DAVISVP2,2013-02-20 02:39:00,
2013-02-19 21:44:00,34.7,33.9,29.59,SE,129,0.0,1.0,97,0.03,,,0.09,WUHU216DAVISVP2,2013-02-20 02:44:00,
2013-02-19 21:49:00,34.4,33.3,29.59,SE,129,0.0,1.0,96,0.02,,,0.09,WUHU216DAVISVP2,2013-02-20 02:49:00,
2013-02-19 21:54:00,34.3,33.2,29.59,SE,129,0.0,1.0,96,0.02,,,0.09,WUHU216DAVISVP2,2013-02-20 02:54:00,
2013-02-19 21:59:00,34.3,33.5,29.59,SE,129,0.0,1.0,97,0.02,,,0.09,WUHU216DAVISVP2,2013-02-20 02:59:00,
2013-02-19 22:04:00,34.2,33.4,29.59,SE,129,0.0,1.0,97,0.02,,,0.09,WUHU216DAVISVP2,2013-02-20 03:04:00,
2013-02-19 22:09:00,34.2,33.4,29.59,SE,129,0.0,0.0,97,0.02,,,0.09,WUHU216DAVISVP2,2013-02-20 03:09:00,
2013-02-19 22:14:00,34.2,33.4,29.58,SE,129,0.0,0.0,97,0.01,,,0.09,WUHU216DAVISVP2,2013-02-20 03:14:00,
2013-02-19 22:19:00,34.2,33.4,29.58,SE,129,0.0,1.0,97,0.01,,,0.09,WUHU216DAVISVP2,2013-02-20 03:19:00,
2013-02-19 22:24:00,34.2,33.4,29.58,SE,129,0.0,1.0,97,0.01,,,0.09,WUHU216DAVISVP2,2013-02-20 03:24:00,
2013-02-19 22:29:00,34.2,33.4,29.58,SE,129,0.0,1.0,97,0.01,,,0.10,WUHU216DAVISVP2,2013-02-20 03:29:00,
2013-02-19 22:34:00,34.2,33.4,29.58,SE,129,0.0,1.0,97,0.01,,,0.10,WUHU216DAVISVP2,2013-02-20 03:34:00,
2013-02-19 22:39:00,34.2,33.4,29.57,SE,129,0.0,0.0,97,0.01,,,0.10,WUHU216DAVISVP2,2013-02-20 03:39:00,
2013-02-19 22:44:00,34.2,33.4,29.58,SE,129,0.0,0.0,97,0.01,,,0.10,WUHU216DAVISVP2,2013-02-20 03:44:00,
2013-02-19 22:49:00,34.2,33.4,29.58,SE,129,0.0,1.0,97,0.02,,,0.11,WUHU216DAVISVP2,2013-02-20 03:49:00,
2013-02-19 22:54:00,34.4,33.6,29.58,SE,129,1.0,1.0,97,0.02,,,0.11,WUHU216DAVISVP2,2013-02-20 03:54:00,
2013-02-19 22:59:00,34.3,33.5,29.57,SE,129,0.0,1.0,97,0.02,,,0.11,WUHU216DAVISVP2,2013-02-20 03:59:00,
2013-02-19 23:04:00,34.2,33.4,29.56,SE,129,0.0,1.0,97,0.03,,,0.12,WUHU216DAVISVP2,2013-02-20 04:04:00,
2013-02-19 23:09:00,34.2,33.4,29.56,SE,129,0.0,1.0,97,0.03,,,0.12,WUHU216DAVISVP2,2013-02-20 04:09:00,
2013-02-19 23:14:00,34.3,33.5,29.56,SE,129,0.0,1.0,97,0.03,,,0.12,WUHU216DAVISVP2,2013-02-20 04:14:00,
2013-02-19 23:19:00,34.3,33.5,29.56,SE,129,0.0,1.0,97,0.03,,,0.12,WUHU216DAVISVP2,2013-02-20 04:19:00,
2013-02-19 23:24:00,34.2,33.4,29.56,SE,129,1.0,1.0,97,0.03,,,0.12,WUHU216DAVISVP2,2013-02-20 04:24:00,
2013-02-19 23:29:00,34.1,33.3,29.56,SE,129,1.0,1.0,97,0.03,,,0.13,WUHU216DAVISVP2,2013-02-20 04:29:00,
2013-02-19 23:34:00,34.2,33.4,29.55,SE,129,0.0,2.0,97,0.03,,,0.13,WUHU216DAVISVP2,2013-02-20 04:34:00,
2013-02-19 23:39:00,34.2,33.4,29.55,SE,129,0.0,2.0,97,0.03,,,0.13,WUHU216DAVISVP2,2013-02-20 04:39:00,
2013-02-19 23:44:00,34.3,33.5,29.55,SE,129,1.0,2.0,97,0.03,,,0.13,WUHU216DAVISVP2,2013-02-20 04:44:00,
2013-02-19 23:50:00,34.3,33.5,29.54,SE,129,0.0,2.0,97,0.02,,,0.13,WUHU216DAVISVP2,2013-02-20 04:50:00,
2013-02-19 23:55:00,34.3,33.5,29.55,SE,129,0.0,1.0,97,0.02,,,0.13,WUHU216DAVISVP2,2013-02-20 04:55:00,
2013-02-19 23:59:00,34.4,33.6,29.55,SE,129,0.0,1.0,97,0.02,,,0.13,WUHU216DAVISVP2,2013-02-20 04:59:00,